Raymond Croze — FNWX — position and weather

sailwx.info

Track history (hours):
 
Tides and Currents Weather Stations Pressure Air Temp Water Temp Dewpoint Dewpoint Depression Visibility Wind Speed Wind Dir Waves Ship Positions

Raymond Croze

Last reported at 2016-Feb-06 18:33 UTC. Time now 2016-Feb-10 10:50 UTC.
Position N 36°37' E 013°46'.

Length 107 m; beam 18 m.

Type: Ship. MMSI: 226290000.

Date/timePositionNaut miles runAvg speedWind from/ knotsBaromVisibWave heightAir tempDewpointWater temp
2016-Feb-06 18:33N 36°37' E 013°46'0 0.2
2016-Feb-06 17:28N 36°37' E 013°46'0 0.2
2016-Feb-06 16:32N 36°37' E 013°46'0 0.2
2016-Feb-06 15:28N 36°37' E 013°46'0 0.1
2016-Feb-06 14:33N 36°37' E 013°46'0 0.1
2016-Feb-06 13:32N 36°37' E 013°46'8 8.1
2016-Feb-06 12:33N 36°36' E 013°56'9 9.5
2016-Feb-06 11:33N 36°36' E 014°08'0 0.1
2016-Feb-06 10:33N 36°36' E 014°08'0 0.3
2016-Feb-06 09:33N 36°36' E 014°08'0 0.2
2016-Feb-06 08:33N 36°37' E 014°09'0 0.2
2016-Feb-06 07:33N 36°36' E 014°08'0 0.3
2016-Feb-06 06:33N 36°36' E 014°08'0 0.2
2016-Feb-06 05:33N 36°36' E 014°08'0 0.4
2016-Feb-06 04:33N 36°36' E 014°07'0 0.5
2016-Feb-06 03:33N 36°36' E 014°08'0 0.4
2016-Feb-06 02:33N 36°36' E 014°08'0 0.2
2016-Feb-06 01:34N 36°37' E 014°09'1 0.7
2016-Feb-06 00:34N 36°37' E 014°10'1 0.9
2016-Feb-05 23:33N 36°37' E 014°11'1 0.5
2016-Feb-05 22:34N 36°37' E 014°11'0 0.1
2016-Feb-05 21:18N 36°37' E 014°11'0 0.0
2016-Feb-05 20:34N 36°37' E 014°11'6 5.9
2016-Feb-05 19:34N 36°36' E 014°04'0 0.1
2016-Feb-05 18:33N 36°36' E 014°04'0 0.0
2016-Feb-05 17:33N 36°36' E 014°04'0 0.3
2016-Feb-05 16:33N 36°36' E 014°04'0 0.5
2016-Feb-05 15:33N 36°36' E 014°03'1 0.7
2016-Feb-05 14:33N 36°35' E 014°02'0 0.3
2016-Feb-05 13:33N 36°35' E 014°02'0 0.2
2016-Feb-05 12:32N 36°35' E 014°02'0 0.2
2016-Feb-05 11:33N 36°35' E 014°02'0 0.1
2016-Feb-05 10:33N 36°35' E 014°02'0 0.0
2016-Feb-05 09:34N 36°35' E 014°02'0 0.1
2016-Feb-05 08:33N 36°35' E 014°03'0 0.2
2016-Feb-05 07:34N 36°35' E 014°03'0 0.0
2016-Feb-05 06:33N 36°35' E 014°03'0 0.1
2016-Feb-05 05:33N 36°35' E 014°03'0 0.1
2016-Feb-05 04:34N 36°35' E 014°03'0 0.2
2016-Feb-05 03:33N 36°35' E 014°03'0 0.1
2016-Feb-05 02:34N 36°35' E 014°02'0 0.0
2016-Feb-05 01:33N 36°35' E 014°02'1 0.9
2016-Feb-05 00:33N 36°36' E 014°04'0 0.5
2016-Feb-04 23:31N 36°36' E 014°04'0 0.1
2016-Feb-04 22:33N 36°36' E 014°04'0 0.0
2016-Feb-04 21:33N 36°36' E 014°04'0 0.0
2016-Feb-04 20:34N 36°36' E 014°04'0 0.0
2016-Feb-04 19:32N 36°36' E 014°04'0 0.1
2016-Feb-04 18:33N 36°36' E 014°04'0 0.0
2016-Feb-04 17:33N 36°36' E 014°04'0 0.0
2016-Feb-04 16:34N 36°36' E 014°04'0 0.0
2016-Feb-04 15:34N 36°36' E 014°04'0 0.0
2016-Feb-04 14:33N 36°36' E 014°04'0 0.0
2016-Feb-04 13:34N 36°36' E 014°04'0 0.1
2016-Feb-04 12:33N 36°36' E 014°04'0 0.1
2016-Feb-04 11:33N 36°36' E 014°04'0 0.1
2016-Feb-04 10:34N 36°36' E 014°04'0 0.0
2016-Feb-04 09:34N 36°36' E 014°04'0 0.1
2016-Feb-04 08:34N 36°36' E 014°04'0 0.1
2016-Feb-04 07:33N 36°36' E 014°04'0 0.2
2016-Feb-04 06:33N 36°36' E 014°04'0 0.4
2016-Feb-04 05:33N 36°36' E 014°03'1 1.0
2016-Feb-04 04:33N 36°35' E 014°02'0 0.1
2016-Feb-04 03:33N 36°35' E 014°02'0 0.1
2016-Feb-04 02:33N 36°35' E 014°02'0 0.1
2016-Feb-04 01:33N 36°35' E 014°02'0 0.1
2016-Feb-04 00:33N 36°35' E 014°02'0 0.2
2016-Feb-03 23:33N 36°35' E 014°03'1 1.0
2016-Feb-03 22:33N 36°36' E 014°04'0 0.2
2016-Feb-03 21:32N 36°36' E 014°04'0 0.2
2016-Feb-03 20:30N 36°36' E 014°04'0 0.2
2016-Feb-03 19:03N 36°36' E 014°04'0 0.1
2016-Feb-03 18:33N 36°36' E 014°04'0 0.1
2016-Feb-03 17:33N 36°36' E 014°04'4 3.7
2016-Feb-03 16:33N 36°37' E 014°09'2 2.2
2016-Feb-03 15:33N 36°37' E 014°11'0 0.0
2016-Feb-03 14:33N 36°37' E 014°11'0 0.0
2016-Feb-03 13:33N 36°37' E 014°11'0 0.0
2016-Feb-03 12:33N 36°37' E 014°11'0 0.0
2016-Feb-03 11:33N 36°37' E 014°11'2 2.2
2016-Feb-03 10:33N 36°37' E 014°09'0 0.0
2016-Feb-03 09:33N 36°37' E 014°09'0 0.3
2016-Feb-03 08:33N 36°36' E 014°08'0 0.3
2016-Feb-03 07:34N 36°36' E 014°08'0 0.2
2016-Feb-03 06:34N 36°36' E 014°08'0 0.2
2016-Feb-03 05:33N 36°36' E 014°07'0 0.1
2016-Feb-03 04:33N 36°36' E 014°07'0 0.1
2016-Feb-03 03:33N 36°36' E 014°07'0 0.1
2016-Feb-03 02:33N 36°36' E 014°07'0 0.1
2016-Feb-03 01:33N 36°36' E 014°08'0 0.1
2016-Feb-03 00:33N 36°36' E 014°08'0 0.1
2016-Feb-02 23:33N 36°36' E 014°08'0 0.1
2016-Feb-02 22:33N 36°36' E 014°08'0 0.2
2016-Feb-02 21:33N 36°36' E 014°08'0 0.2
2016-Feb-02 20:33N 36°36' E 014°08'0 0.2
2016-Feb-02 19:33N 36°37' E 014°09'0 0.2
2016-Feb-02 18:33N 36°37' E 014°09'0 0.2
2016-Feb-02 17:33N 36°37' E 014°09'0 0.2
2016-Feb-02 16:33N 36°36' E 014°08'0 0.2
2016-Feb-02 15:33N 36°36' E 014°08'0 0.1
2016-Feb-02 14:33N 36°36' E 014°08'0 0.5
2016-Feb-02 13:33N 36°37' E 014°09'1 1.1
2016-Feb-02 12:33N 36°37' E 014°10'1 1.0
2016-Feb-02 11:33N 36°37' E 014°11'0 0.1
2016-Feb-02 10:33N 36°37' E 014°11'0 0.2
2016-Feb-02 09:33N 36°37' E 014°11'0 0.1
2016-Feb-02 08:33N 36°37' E 014°11'0 0.1
2016-Feb-02 07:33N 36°37' E 014°11'0 0.2
2016-Feb-02 06:33N 36°37' E 014°11'0 0.1
2016-Feb-02 05:33N 36°37' E 014°11'1 1.1
2016-Feb-02 04:33N 36°37' E 014°12'0 0.4
2016-Feb-02 03:33N 36°37' E 014°13'0 0.4
2016-Feb-02 02:34N 36°37' E 014°13'0 0.1
2016-Feb-02 01:34N 36°37' E 014°13'0 0.2
2016-Feb-02 00:32N 36°37' E 014°13'0 0.2
2016-Feb-01 23:33N 36°37' E 014°13'0 0.1
2016-Feb-01 22:33N 36°37' E 014°13'0 0.0
2016-Feb-01 21:33N 36°37' E 014°13'0 0.1
2016-Feb-01 20:33N 36°37' E 014°13'0 0.2
2016-Feb-01 19:34N 36°37' E 014°13'0 0.2
2016-Feb-01 18:31N 36°37' E 014°13'0 0.2
2016-Feb-01 17:33N 36°37' E 014°13'0 0.1
2016-Feb-01 16:33N 36°37' E 014°13'0 0.0
2016-Feb-01 15:34N 36°38' E 014°14'4 4.3
2016-Feb-01 14:33N 36°35' E 014°18'9 8.6
2016-Feb-01 13:33N 36°31' E 014°28'3 3.1
2016-Feb-01 12:33N 36°30' E 014°31'0 0.3
2016-Feb-01 11:33N 36°30' E 014°31'0 0.0
2016-Feb-01 10:33N 36°30' E 014°31'0 0.2
2016-Feb-01 09:33N 36°30' E 014°31'0 0.2
2016-Feb-01 08:33N 36°30' E 014°31'0 0.3
2016-Feb-01 07:33N 36°30' E 014°31'0 0.1
2016-Feb-01 06:32N 36°30' E 014°32'0 0.1
2016-Feb-01 05:33N 36°30' E 014°31'0 0.1
2016-Feb-01 04:33N 36°30' E 014°31'0 0.1
2016-Feb-01 03:33N 36°30' E 014°31'0 0.1
2016-Feb-01 02:33N 36°30' E 014°31'0 0.1
2016-Feb-01 01:33N 36°30' E 014°31'0 0.0
2016-Feb-01 00:33N 36°30' E 014°31'0 0.0
2016-Jan-31 23:33N 36°30' E 014°31'0 0.0
2016-Jan-31 22:33N 36°30' E 014°31'0 0.1
2016-Jan-31 21:32N 36°30' E 014°31'0 0.0
2016-Jan-31 20:33N 36°30' E 014°31'0 0.1
2016-Jan-31 19:33N 36°30' E 014°31'0 0.1
2016-Jan-31 18:33N 36°30' E 014°31'0 0.2
2016-Jan-31 17:26N 36°30' E 014°31'0 0.2
2016-Jan-31 16:33N 36°30' E 014°31'0 0.1
2016-Jan-31 15:28N 36°30' E 014°31'0 0.0
2016-Jan-31 14:33N 36°30' E 014°31'0 0.0
2016-Jan-31 13:33N 36°30' E 014°31'0 0.0
2016-Jan-31 12:33N 36°30' E 014°31'0 0.1
2016-Jan-31 11:30N 36°30' E 014°32'3 2.6
2016-Jan-31 10:31N 36°29' E 014°35'14 1.2
2016-Jan-30 22:31N 36°26' E 014°52'9 1.4
2016-Jan-30 16:16N 36°27' E 014°41'0 0.1
2016-Jan-30 12:14N 36°27' E 014°41'14 4.9
2016-Jan-30 09:22N 36°24' E 014°58'0 0.3
2016-Jan-30 08:05N 36°24' E 014°58'1 0.2
2016-Jan-30 04:18N 36°24' E 014°59'0 0.0
2016-Jan-30 03:33N 36°24' E 014°59'10 7.8
2016-Jan-30 02:19N 36°32' E 015°05'10 0.3
2016-Jan-28 21:15N 36°24' E 014°59'0 0.2
2016-Jan-28 20:33N 36°24' E 014°58'0 0.2
2016-Jan-28 19:32N 36°24' E 014°58'0 0.1
2016-Jan-28 18:32N 36°24' E 014°58'0 0.1
2016-Jan-28 17:30N 36°24' E 014°58'0 0.1
2016-Jan-28 16:33N 36°24' E 014°59'0 0.0
2016-Jan-28 15:33N 36°24' E 014°59'0 0.1
2016-Jan-28 14:31N 36°24' E 014°59'0 0.1
2016-Jan-28 13:33N 36°24' E 014°59'0 0.2
2016-Jan-28 12:15N 36°24' E 014°59'0 0.2
2016-Jan-28 11:33N 36°24' E 014°59'0 0.2
2016-Jan-28 10:33N 36°24' E 014°59'0 0.0
2016-Jan-28 09:33N 36°24' E 014°59'0 0.0
2016-Jan-28 08:33N 36°24' E 014°59'0 0.0
2016-Jan-28 07:33N 36°24' E 014°59'0 0.0
2016-Jan-28 06:33N 36°24' E 014°59'0 0.0
2016-Jan-28 05:33N 36°24' E 014°59'0 0.0
2016-Jan-28 04:33N 36°24' E 014°59'0 0.0
2016-Jan-28 03:33N 36°24' E 014°59'0 0.0
2016-Jan-28 02:33N 36°24' E 014°59'0 0.0
2016-Jan-28 01:34N 36°24' E 014°59'0 0.1
2016-Jan-28 00:33N 36°24' E 014°60'1 0.7
2016-Jan-27 23:33N 36°24' E 014°60'1110.7
2016-Jan-27 22:33N 36°33' E 015°07'2512.3
2016-Jan-27 20:29N 36°55' E 015°23'1010.9
2016-Jan-27 19:32N 37°05' E 015°24'  
Track history (hours):
 
Tides and Currents Weather Stations Pressure Air Temp Water Temp Dewpoint Dewpoint Depression Visibility Wind Speed Wind Dir Waves Ship Positions

Raymond Croze

Last reported at 2016-Feb-06 18:33 UTC. Time now 2016-Feb-10 10:50 UTC.
Position N 36°37' E 013°46'.

Length 107 m; beam 18 m.

Type: Ship. MMSI: 226290000.

Date/timePositionNaut miles runAvg speedWind from/ knotsBaromVisibWave heightAir tempDewpointWater temp
2016-Feb-06 18:33N 36°37' E 013°46'0 0.2
2016-Feb-06 17:28N 36°37' E 013°46'0 0.2
2016-Feb-06 16:32N 36°37' E 013°46'0 0.2
2016-Feb-06 15:28N 36°37' E 013°46'0 0.1
2016-Feb-06 14:33N 36°37' E 013°46'0 0.1
2016-Feb-06 13:32N 36°37' E 013°46'8 8.1
2016-Feb-06 12:33N 36°36' E 013°56'9 9.5
2016-Feb-06 11:33N 36°36' E 014°08'0 0.1
2016-Feb-06 10:33N 36°36' E 014°08'0 0.3
2016-Feb-06 09:33N 36°36' E 014°08'0 0.2
2016-Feb-06 08:33N 36°37' E 014°09'0 0.2
2016-Feb-06 07:33N 36°36' E 014°08'0 0.3
2016-Feb-06 06:33N 36°36' E 014°08'0 0.2
2016-Feb-06 05:33N 36°36' E 014°08'0 0.4
2016-Feb-06 04:33N 36°36' E 014°07'0 0.5
2016-Feb-06 03:33N 36°36' E 014°08'0 0.4
2016-Feb-06 02:33N 36°36' E 014°08'0 0.2
2016-Feb-06 01:34N 36°37' E 014°09'1 0.7
2016-Feb-06 00:34N 36°37' E 014°10'1 0.9
2016-Feb-05 23:33N 36°37' E 014°11'1 0.5
2016-Feb-05 22:34N 36°37' E 014°11'0 0.1
2016-Feb-05 21:18N 36°37' E 014°11'0 0.0
2016-Feb-05 20:34N 36°37' E 014°11'6 5.9
2016-Feb-05 19:34N 36°36' E 014°04'0 0.1
2016-Feb-05 18:33N 36°36' E 014°04'0 0.0
2016-Feb-05 17:33N 36°36' E 014°04'0 0.3
2016-Feb-05 16:33N 36°36' E 014°04'0 0.5
2016-Feb-05 15:33N 36°36' E 014°03'1 0.7
2016-Feb-05 14:33N 36°35' E 014°02'0 0.3
2016-Feb-05 13:33N 36°35' E 014°02'0 0.2
2016-Feb-05 12:32N 36°35' E 014°02'0 0.2
2016-Feb-05 11:33N 36°35' E 014°02'0 0.1
2016-Feb-05 10:33N 36°35' E 014°02'0 0.0
2016-Feb-05 09:34N 36°35' E 014°02'0 0.1
2016-Feb-05 08:33N 36°35' E 014°03'0 0.2
2016-Feb-05 07:34N 36°35' E 014°03'0 0.0
2016-Feb-05 06:33N 36°35' E 014°03'0 0.1
2016-Feb-05 05:33N 36°35' E 014°03'0 0.1
2016-Feb-05 04:34N 36°35' E 014°03'0 0.2
2016-Feb-05 03:33N 36°35' E 014°03'0 0.1
2016-Feb-05 02:34N 36°35' E 014°02'0 0.0
2016-Feb-05 01:33N 36°35' E 014°02'1 0.9
2016-Feb-05 00:33N 36°36' E 014°04'0 0.5
2016-Feb-04 23:31N 36°36' E 014°04'0 0.1
2016-Feb-04 22:33N 36°36' E 014°04'0 0.0
2016-Feb-04 21:33N 36°36' E 014°04'0 0.0
2016-Feb-04 20:34N 36°36' E 014°04'0 0.0
2016-Feb-04 19:32N 36°36' E 014°04'0 0.1
2016-Feb-04 18:33N 36°36' E 014°04'0 0.0
2016-Feb-04 17:33N 36°36' E 014°04'0 0.0
2016-Feb-04 16:34N 36°36' E 014°04'0 0.0
2016-Feb-04 15:34N 36°36' E 014°04'0 0.0
2016-Feb-04 14:33N 36°36' E 014°04'0 0.0
2016-Feb-04 13:34N 36°36' E 014°04'0 0.1
2016-Feb-04 12:33N 36°36' E 014°04'0 0.1
2016-Feb-04 11:33N 36°36' E 014°04'0 0.1
2016-Feb-04 10:34N 36°36' E 014°04'0 0.0
2016-Feb-04 09:34N 36°36' E 014°04'0 0.1
2016-Feb-04 08:34N 36°36' E 014°04'0 0.1
2016-Feb-04 07:33N 36°36' E 014°04'0 0.2
2016-Feb-04 06:33N 36°36' E 014°04'0 0.4
2016-Feb-04 05:33N 36°36' E 014°03'1 1.0
2016-Feb-04 04:33N 36°35' E 014°02'0 0.1
2016-Feb-04 03:33N 36°35' E 014°02'0 0.1
2016-Feb-04 02:33N 36°35' E 014°02'0 0.1
2016-Feb-04 01:33N 36°35' E 014°02'0 0.1
2016-Feb-04 00:33N 36°35' E 014°02'0 0.2
2016-Feb-03 23:33N 36°35' E 014°03'1 1.0
2016-Feb-03 22:33N 36°36' E 014°04'0 0.2
2016-Feb-03 21:32N 36°36' E 014°04'0 0.2
2016-Feb-03 20:30N 36°36' E 014°04'0 0.2
2016-Feb-03 19:03N 36°36' E 014°04'0 0.1
2016-Feb-03 18:33N 36°36' E 014°04'0 0.1
2016-Feb-03 17:33N 36°36' E 014°04'4 3.7
2016-Feb-03 16:33N 36°37' E 014°09'2 2.2
2016-Feb-03 15:33N 36°37' E 014°11'0 0.0
2016-Feb-03 14:33N 36°37' E 014°11'0 0.0
2016-Feb-03 13:33N 36°37' E 014°11'0 0.0
2016-Feb-03 12:33N 36°37' E 014°11'0 0.0
2016-Feb-03 11:33N 36°37' E 014°11'2 2.2
2016-Feb-03 10:33N 36°37' E 014°09'0 0.0
2016-Feb-03 09:33N 36°37' E 014°09'0 0.3
2016-Feb-03 08:33N 36°36' E 014°08'0 0.3
2016-Feb-03 07:34N 36°36' E 014°08'0 0.2
2016-Feb-03 06:34N 36°36' E 014°08'0 0.2
2016-Feb-03 05:33N 36°36' E 014°07'0 0.1
2016-Feb-03 04:33N 36°36' E 014°07'0 0.1
2016-Feb-03 03:33N 36°36' E 014°07'0 0.1
2016-Feb-03 02:33N 36°36' E 014°07'0 0.1
2016-Feb-03 01:33N 36°36' E 014°08'0 0.1
2016-Feb-03 00:33N 36°36' E 014°08'0 0.1
2016-Feb-02 23:33N 36°36' E 014°08'0 0.1
2016-Feb-02 22:33N 36°36' E 014°08'0 0.2
2016-Feb-02 21:33N 36°36' E 014°08'0 0.2
2016-Feb-02 20:33N 36°36' E 014°08'0 0.2
2016-Feb-02 19:33N 36°37' E 014°09'0 0.2
2016-Feb-02 18:33N 36°37' E 014°09'0 0.2
2016-Feb-02 17:33N 36°37' E 014°09'0 0.2
2016-Feb-02 16:33N 36°36' E 014°08'0 0.2
2016-Feb-02 15:33N 36°36' E 014°08'0 0.1
2016-Feb-02 14:33N 36°36' E 014°08'0 0.5
2016-Feb-02 13:33N 36°37' E 014°09'1 1.1
2016-Feb-02 12:33N 36°37' E 014°10'1 1.0
2016-Feb-02 11:33N 36°37' E 014°11'0 0.1
2016-Feb-02 10:33N 36°37' E 014°11'0 0.2
2016-Feb-02 09:33N 36°37' E 014°11'0 0.1
2016-Feb-02 08:33N 36°37' E 014°11'0 0.1
2016-Feb-02 07:33N 36°37' E 014°11'0 0.2
2016-Feb-02 06:33N 36°37' E 014°11'0 0.1
2016-Feb-02 05:33N 36°37' E 014°11'1 1.1
2016-Feb-02 04:33N 36°37' E 014°12'0 0.4
2016-Feb-02 03:33N 36°37' E 014°13'0 0.4
2016-Feb-02 02:34N 36°37' E 014°13'0 0.1
2016-Feb-02 01:34N 36°37' E 014°13'0 0.2
2016-Feb-02 00:32N 36°37' E 014°13'0 0.2
2016-Feb-01 23:33N 36°37' E 014°13'0 0.1
2016-Feb-01 22:33N 36°37' E 014°13'0 0.0
2016-Feb-01 21:33N 36°37' E 014°13'0 0.1
2016-Feb-01 20:33N 36°37' E 014°13'0 0.2
2016-Feb-01 19:34N 36°37' E 014°13'0 0.2
2016-Feb-01 18:31N 36°37' E 014°13'0 0.2
2016-Feb-01 17:33N 36°37' E 014°13'0 0.1
2016-Feb-01 16:33N 36°37' E 014°13'0 0.0
2016-Feb-01 15:34N 36°38' E 014°14'4 4.3
2016-Feb-01 14:33N 36°35' E 014°18'9 8.6
2016-Feb-01 13:33N 36°31' E 014°28'3 3.1
2016-Feb-01 12:33N 36°30' E 014°31'0 0.3
2016-Feb-01 11:33N 36°30' E 014°31'0 0.0
2016-Feb-01 10:33N 36°30' E 014°31'0 0.2
2016-Feb-01 09:33N 36°30' E 014°31'0 0.2
2016-Feb-01 08:33N 36°30' E 014°31'0 0.3
2016-Feb-01 07:33N 36°30' E 014°31'0 0.1
2016-Feb-01 06:32N 36°30' E 014°32'0 0.1
2016-Feb-01 05:33N 36°30' E 014°31'0 0.1
2016-Feb-01 04:33N 36°30' E 014°31'0 0.1
2016-Feb-01 03:33N 36°30' E 014°31'0 0.1
2016-Feb-01 02:33N 36°30' E 014°31'0 0.1
2016-Feb-01 01:33N 36°30' E 014°31'0 0.0
2016-Feb-01 00:33N 36°30' E 014°31'0 0.0
2016-Jan-31 23:33N 36°30' E 014°31'0 0.0
2016-Jan-31 22:33N 36°30' E 014°31'0 0.1
2016-Jan-31 21:32N 36°30' E 014°31'0 0.0
2016-Jan-31 20:33N 36°30' E 014°31'0 0.1
2016-Jan-31 19:33N 36°30' E 014°31'0 0.1
2016-Jan-31 18:33N 36°30' E 014°31'0 0.2
2016-Jan-31 17:26N 36°30' E 014°31'0 0.2
2016-Jan-31 16:33N 36°30' E 014°31'0 0.1
2016-Jan-31 15:28N 36°30' E 014°31'0 0.0
2016-Jan-31 14:33N 36°30' E 014°31'0 0.0
2016-Jan-31 13:33N 36°30' E 014°31'0 0.0
2016-Jan-31 12:33N 36°30' E 014°31'0 0.1
2016-Jan-31 11:30N 36°30' E 014°32'3 2.6
2016-Jan-31 10:31N 36°29' E 014°35'14 1.2
2016-Jan-30 22:31N 36°26' E 014°52'9 1.4
2016-Jan-30 16:16N 36°27' E 014°41'0 0.1
2016-Jan-30 12:14N 36°27' E 014°41'14 4.9
2016-Jan-30 09:22N 36°24' E 014°58'0 0.3
2016-Jan-30 08:05N 36°24' E 014°58'1 0.2
2016-Jan-30 04:18N 36°24' E 014°59'0 0.0
2016-Jan-30 03:33N 36°24' E 014°59'10 7.8
2016-Jan-30 02:19N 36°32' E 015°05'10 0.3
2016-Jan-28 21:15N 36°24' E 014°59'0 0.2
2016-Jan-28 20:33N 36°24' E 014°58'0 0.2
2016-Jan-28 19:32N 36°24' E 014°58'0 0.1
2016-Jan-28 18:32N 36°24' E 014°58'0 0.1
2016-Jan-28 17:30N 36°24' E 014°58'0 0.1
2016-Jan-28 16:33N 36°24' E 014°59'0 0.0
2016-Jan-28 15:33N 36°24' E 014°59'0 0.1
2016-Jan-28 14:31N 36°24' E 014°59'0 0.1
2016-Jan-28 13:33N 36°24' E 014°59'0 0.2
2016-Jan-28 12:15N 36°24' E 014°59'0 0.2
2016-Jan-28 11:33N 36°24' E 014°59'0 0.2
2016-Jan-28 10:33N 36°24' E 014°59'0 0.0
2016-Jan-28 09:33N 36°24' E 014°59'0 0.0
2016-Jan-28 08:33N 36°24' E 014°59'0 0.0
2016-Jan-28 07:33N 36°24' E 014°59'0 0.0
2016-Jan-28 06:33N 36°24' E 014°59'0 0.0
2016-Jan-28 05:33N 36°24' E 014°59'0 0.0
2016-Jan-28 04:33N 36°24' E 014°59'0 0.0
2016-Jan-28 03:33N 36°24' E 014°59'0 0.0
2016-Jan-28 02:33N 36°24' E 014°59'0 0.0
2016-Jan-28 01:34N 36°24' E 014°59'0 0.1
2016-Jan-28 00:33N 36°24' E 014°60'1 0.7
2016-Jan-27 23:33N 36°24' E 014°60'1110.7
2016-Jan-27 22:33N 36°33' E 015°07'2512.3
2016-Jan-27 20:29N 36°55' E 015°23'1010.9
2016-Jan-27 19:32N 37°05' E 015°24'  

Dump ship's entire track history